Thunder radar more information blitzortung!


Radar de pluja more information rain snow radar


Visita la nostra xarxa de llocs de meteo:

Template documentation
and downloads

And another site



No particular awareness of the weather is required.    There are no Weather-warnings

Pagina Historial Weather Underground text

Diari Resum Juny 16, 2016 Unitats:  Mètric    Imperial   Tant
« Previous Dia
SegĂźent Dia »
Diari Setmana Mensual Anual Personalitzada
  Maxima: Minima: Media:
Temperatura: 25.8 °C 14.9 °C 20.4 °C
Punt de rosada: 11.3 °C 4.2 °C 7.6 °C
Humitat: 67 % 26 % 46 %
Wind Speed: 27.8 km/h 4.2 km/h 6.6 km/h
RĂ fegues de vent: 27.8 km/h - -
Vent:- - SE
Pression baro: 1010.7 hPa 999.9 hPa -
Precipitacions: 5.3 mm    
Historical Graphs
 
 
Dades de taula per Juny 16, 2016
Temps Temperatura Punt de rosada Pression baro Vent Wind Speed RĂ fegues de vent Humitat Rainfall Rate (Hourly)
00:02 18.7 °C 11.3 °C 999.9 hPa ENE 4.7 km/h 4.7 km/h 62 % 0.0 mm
00:05 15.4 °C 9.1 °C 1000.9 hPa ESE 4.8 km/h 9.7 km/h 66 % 0.0 mm
00:15 15.4 °C 9.1 °C 1000.9 hPa ESE 4.8 km/h 9.7 km/h 66 % 0.0 mm
00:25 15.4 °C 9.1 °C 1000.9 hPa ESE 4.8 km/h 9.7 km/h 66 % 0.0 mm
00:35 15.3 °C 9.2 °C 1000.9 hPa ESE 4.8 km/h 9.7 km/h 67 % 0.0 mm
00:45 15.5 °C 8.9 °C 1000.9 hPa ESE 4.8 km/h 9.7 km/h 65 % 0.0 mm
00:55 15.6 °C 9.1 °C 1000.9 hPa ESE 4.8 km/h 9.7 km/h 65 % 0.0 mm
01:05 15.5 °C 8.9 °C 1000.9 hPa ESE 4.8 km/h 9.7 km/h 65 % 0.0 mm
01:15 15.6 °C 8.8 °C 1000.9 hPa ESE 4.8 km/h 9.7 km/h 64 % 0.0 mm
01:25 15.7 °C 8.7 °C 1000.9 hPa ESE 4.8 km/h 9.7 km/h 63 % 0.0 mm
01:35 15.8 °C 8.6 °C 1001.9 hPa ESE 4.8 km/h 9.7 km/h 62 % 0.0 mm
01:45 15.9 °C 8.4 °C 1001.9 hPa ESE 4.8 km/h 9.7 km/h 61 % 0.0 mm
01:55 15.8 °C 8.3 °C 1001.9 hPa ESE 4.8 km/h 9.7 km/h 61 % 0.0 mm
02:05 15.7 °C 8.2 °C 1001.9 hPa ESE 4.8 km/h 9.7 km/h 61 % 5.3 mm
02:15 16.0 °C 8.2 °C 1002.9 hPa ESE 4.8 km/h 9.7 km/h 60 % 5.3 mm
02:25 16.2 °C 7.9 °C 1002.9 hPa ESE 4.8 km/h 9.7 km/h 58 % 0.0 mm
02:35 16.3 °C 8.0 °C 1001.9 hPa ESE 4.8 km/h 9.7 km/h 58 % 0.0 mm
02:45 16.5 °C 8.2 °C 1001.9 hPa ESE 4.8 km/h 9.7 km/h 58 % 0.0 mm
02:55 16.8 °C 8.2 °C 1001.9 hPa ESE 4.8 km/h 9.7 km/h 57 % 0.0 mm
03:05 17.0 °C 7.6 °C 1001.9 hPa ESE 4.8 km/h 9.7 km/h 54 % 0.0 mm
03:15 17.2 °C 7.6 °C 1001.9 hPa ESE 4.8 km/h 9.7 km/h 53 % 0.0 mm
03:25 17.4 °C 7.7 °C 1001.9 hPa ESE 4.8 km/h 9.7 km/h 53 % 0.0 mm
03:35 17.5 °C 7.8 °C 1001.9 hPa ESE 4.8 km/h 9.7 km/h 53 % 0.0 mm
03:45 17.5 °C 7.8 °C 1002.9 hPa ESE 4.8 km/h 9.7 km/h 53 % 0.0 mm
03:55 17.4 °C 7.7 °C 1002.9 hPa ESE 4.8 km/h 9.7 km/h 53 % 0.0 mm
04:05 17.3 °C 7.3 °C 1002.9 hPa ESE 4.8 km/h 9.7 km/h 52 % 0.0 mm
04:15 17.5 °C 7.8 °C 1002.9 hPa ESE 4.8 km/h 9.7 km/h 53 % 0.0 mm
04:25 17.7 °C 7.7 °C 1002.9 hPa ESE 4.8 km/h 9.7 km/h 52 % 0.0 mm
04:35 18.1 °C 7.8 °C 1002.9 hPa ESE 4.8 km/h 9.7 km/h 51 % 0.0 mm
04:45 18.5 °C 7.9 °C 1002.9 hPa ESE 4.8 km/h 9.7 km/h 50 % 0.0 mm
04:55 19.1 °C 8.4 °C 1002.9 hPa ESE 4.8 km/h 9.7 km/h 50 % 0.0 mm
05:05 19.3 °C 8.3 °C 1002.9 hPa ESE 4.8 km/h 9.7 km/h 49 % 0.0 mm
10:08 19.5 °C 8.2 °C 1002.9 hPa ENE 9.3 km/h 9.3 km/h 48 % 0.0 mm
10:13 19.8 °C 8.4 °C 1002.9 hPa ENE 4.7 km/h 4.7 km/h 48 % 0.0 mm
10:18 20.1 °C 8.4 °C 1002.9 hPa ENE 4.7 km/h 4.7 km/h 47 % 0.0 mm
10:23 20.0 °C 8.0 °C 1002.9 hPa ENE 4.7 km/h 4.7 km/h 46 % 0.0 mm
10:28 19.9 °C 7.9 °C 1002.9 hPa ENE 4.7 km/h 4.7 km/h 46 % 0.0 mm
10:33 20.0 °C 8.0 °C 1002.9 hPa ENE 4.7 km/h 4.7 km/h 46 % 0.0 mm
10:38 19.8 °C 7.2 °C 1002.9 hPa ENE 4.7 km/h 4.7 km/h 44 % 0.0 mm
10:43 19.9 °C 7.3 °C 1002.9 hPa ENE 4.7 km/h 4.7 km/h 44 % 0.0 mm
10:48 20.0 °C 7.4 °C 1002.9 hPa ENE 4.7 km/h 4.7 km/h 44 % 0.0 mm
10:53 20.3 °C 7.7 °C 1002.9 hPa ENE 4.7 km/h 4.7 km/h 44 % 0.0 mm
10:58 20.4 °C 7.7 °C 1003.9 hPa ENE 4.7 km/h 4.7 km/h 44 % 0.0 mm
11:03 20.4 °C 7.4 °C 1003.9 hPa ENE 4.7 km/h 4.7 km/h 43 % 0.0 mm
11:08 20.8 °C 8.1 °C 1003.9 hPa ENE 4.7 km/h 4.7 km/h 44 % 0.0 mm
11:14 20.6 °C 7.6 °C 1002.9 hPa ENE 4.7 km/h 4.7 km/h 43 % 0.0 mm
11:19 20.7 °C 7.7 °C 1002.9 hPa ENE 4.7 km/h 4.7 km/h 43 % 0.0 mm
11:24 21.0 °C 7.2 °C 1002.9 hPa ENE 4.7 km/h 4.7 km/h 41 % 0.0 mm
11:29 21.4 °C 7.9 °C 1003.9 hPa ENE 4.7 km/h 4.7 km/h 42 % 0.0 mm
11:34 21.3 °C 7.5 °C 1003.9 hPa ENE 4.7 km/h 4.7 km/h 41 % 0.0 mm
11:39 21.0 °C 7.2 °C 1003.9 hPa ENE 4.7 km/h 4.7 km/h 41 % 0.0 mm
11:44 21.1 °C 6.9 °C 1005.0 hPa ENE 4.7 km/h 4.7 km/h 40 % 0.0 mm
11:49 21.3 °C 7.2 °C 1005.0 hPa ENE 4.7 km/h 4.7 km/h 40 % 0.0 mm
11:54 21.5 °C 7.3 °C 1005.0 hPa ENE 4.7 km/h 4.7 km/h 40 % 0.0 mm
11:59 21.5 °C 7.3 °C 1003.9 hPa ENE 4.7 km/h 4.7 km/h 40 % 0.0 mm
12:04 21.5 °C 6.9 °C 1003.9 hPa ENE 4.7 km/h 4.7 km/h 39 % 0.0 mm
12:09 21.6 °C 7.1 °C 1003.9 hPa ENE 4.7 km/h 4.7 km/h 39 % 0.0 mm
12:14 21.8 °C 7.6 °C 1003.9 hPa ENE 4.7 km/h 4.7 km/h 40 % 0.0 mm
12:19 21.5 °C 6.9 °C 1003.9 hPa ENE 4.7 km/h 4.7 km/h 39 % 0.0 mm
12:24 22.1 °C 7.5 °C 1003.9 hPa ENE 4.7 km/h 4.7 km/h 39 % 0.0 mm
12:29 22.3 °C 7.3 °C 1003.9 hPa ENE 4.7 km/h 4.7 km/h 38 % 0.0 mm
12:34 22.6 °C 7.2 °C 1003.9 hPa ENE 4.7 km/h 4.7 km/h 37 % 0.0 mm
12:39 22.7 °C 7.3 °C 1003.9 hPa ENE 4.7 km/h 4.7 km/h 37 % 0.0 mm
12:44 23.0 °C 7.5 °C 1003.9 hPa ENE 4.7 km/h 4.7 km/h 37 % 0.0 mm
12:49 23.3 °C 7.4 °C 1003.9 hPa ENE 4.7 km/h 4.7 km/h 36 % 0.0 mm
12:54 23.2 °C 6.9 °C 1003.9 hPa ENE 4.7 km/h 4.7 km/h 35 % 0.0 mm
12:59 22.8 °C 6.9 °C 1003.9 hPa ENE 4.7 km/h 4.7 km/h 36 % 0.0 mm
13:04 23.3 °C 7.4 °C 1003.9 hPa ENE 4.7 km/h 4.7 km/h 36 % 0.0 mm
13:09 23.5 °C 7.6 °C 1003.9 hPa ENE 4.7 km/h 4.7 km/h 36 % 0.0 mm
13:14 22.9 °C 7.1 °C 1003.9 hPa ENE 4.7 km/h 4.7 km/h 36 % 0.0 mm
13:19 22.8 °C 6.9 °C 1003.9 hPa ENE 4.7 km/h 4.7 km/h 36 % 0.0 mm
13:24 23.9 °C 7.5 °C 1003.9 hPa ENE 4.7 km/h 4.7 km/h 35 % 0.0 mm
13:29 24.1 °C 7.7 °C 1003.9 hPa ENE 4.7 km/h 4.7 km/h 35 % 0.0 mm
13:34 23.7 °C 6.0 °C 1003.9 hPa ENE 4.7 km/h 4.7 km/h 32 % 0.0 mm
13:39 23.6 °C 6.4 °C 1003.9 hPa ENE 4.7 km/h 4.7 km/h 33 % 0.0 mm
13:44 23.6 °C 6.4 °C 1002.9 hPa ENE 4.7 km/h 4.7 km/h 33 % 0.0 mm
13:49 23.2 °C 5.6 °C 1002.9 hPa ENE 4.7 km/h 4.7 km/h 32 % 0.0 mm
13:54 23.6 °C 5.9 °C 1002.9 hPa ENE 4.7 km/h 4.7 km/h 32 % 0.0 mm
13:59 23.2 °C 5.6 °C 1002.9 hPa ENE 4.7 km/h 4.7 km/h 32 % 0.0 mm
14:04 23.0 °C 5.4 °C 1002.9 hPa ENE 4.7 km/h 4.7 km/h 32 % 0.0 mm
14:09 23.2 °C 5.6 °C 1002.9 hPa ENE 4.7 km/h 4.7 km/h 32 % 0.0 mm
14:14 23.6 °C 5.5 °C 1003.9 hPa ENE 4.7 km/h 4.7 km/h 31 % 0.0 mm
14:19 23.4 °C 5.3 °C 1003.9 hPa ENE 4.7 km/h 4.7 km/h 31 % 0.0 mm
14:24 24.0 °C 5.3 °C 1003.9 hPa ENE 4.7 km/h 4.7 km/h 30 % 0.0 mm
14:29 24.4 °C 5.7 °C 1003.9 hPa ENE 4.7 km/h 4.7 km/h 30 % 0.0 mm
14:34 24.6 °C 6.3 °C 1003.9 hPa ENE 4.7 km/h 4.7 km/h 31 % 0.0 mm
14:39 24.7 °C 6.4 °C 1003.9 hPa ENE 4.7 km/h 4.7 km/h 31 % 0.0 mm
14:49 25.2 °C 6.4 °C 1002.9 hPa ENE 4.7 km/h 4.7 km/h 30 % 0.0 mm
14:54 25.1 °C 6.3 °C 1002.9 hPa ENE 4.7 km/h 4.7 km/h 30 % 0.0 mm
14:59 25.4 °C 6.6 °C 1002.9 hPa ENE 4.7 km/h 4.7 km/h 30 % 0.0 mm
15:04 24.8 °C 6.1 °C 1002.9 hPa ENE 4.7 km/h 4.7 km/h 30 % 0.0 mm
15:09 24.9 °C 6.1 °C 1002.9 hPa ENE 4.7 km/h 4.7 km/h 30 % 0.0 mm
15:14 24.9 °C 6.1 °C 1002.9 hPa ENE 4.7 km/h 4.7 km/h 30 % 0.0 mm
15:19 25.0 °C 5.2 °C 1002.9 hPa ENE 4.7 km/h 4.7 km/h 28 % 0.0 mm
15:24 25.1 °C 5.3 °C 1002.9 hPa ENE 4.7 km/h 4.7 km/h 28 % 0.0 mm
15:29 24.4 °C 5.2 °C 1002.9 hPa ENE 4.7 km/h 4.7 km/h 29 % 0.0 mm
15:34 24.1 °C 4.9 °C 1002.9 hPa ENE 4.7 km/h 4.7 km/h 29 % 0.0 mm
15:39 24.0 °C 4.8 °C 1002.9 hPa ENE 4.7 km/h 4.7 km/h 29 % 0.0 mm
15:44 24.2 °C 5.1 °C 1002.9 hPa ENE 4.7 km/h 4.7 km/h 29 % 0.0 mm
15:49 23.7 °C 4.6 °C 1002.9 hPa ENE 4.7 km/h 4.7 km/h 29 % 0.0 mm
15:54 24.4 °C 5.2 °C 1002.9 hPa ENE 4.7 km/h 4.7 km/h 29 % 0.0 mm
15:59 24.0 °C 4.3 °C 1003.9 hPa ENE 4.7 km/h 4.7 km/h 28 % 0.0 mm
16:04 24.2 °C 5.1 °C 1003.9 hPa ENE 4.7 km/h 4.7 km/h 29 % 0.0 mm
16:09 24.8 °C 5.6 °C 1003.9 hPa ENE 4.7 km/h 4.7 km/h 29 % 0.0 mm
16:14 24.6 °C 5.4 °C 1003.9 hPa ENE 4.7 km/h 4.7 km/h 29 % 0.0 mm
16:19 24.5 °C 5.3 °C 1003.9 hPa ENE 4.7 km/h 4.7 km/h 29 % 0.0 mm
16:24 25.2 °C 5.4 °C 1003.9 hPa ENE 4.7 km/h 4.7 km/h 28 % 0.0 mm
16:29 25.0 °C 4.7 °C 1003.9 hPa ENE 4.7 km/h 4.7 km/h 27 % 0.0 mm
16:39 25.5 °C 5.1 °C 1003.9 hPa ENE 4.7 km/h 4.7 km/h 27 % 0.0 mm
16:44 25.6 °C 5.2 °C 1003.9 hPa ENE 4.7 km/h 4.7 km/h 27 % 0.0 mm
16:54 25.8 °C 5.4 °C 1003.9 hPa ENE 4.7 km/h 4.7 km/h 27 % 0.0 mm
16:59 25.4 °C 5.1 °C 1003.9 hPa ENE 4.7 km/h 4.7 km/h 27 % 0.0 mm
17:04 25.3 °C 4.4 °C 1003.9 hPa ENE 4.7 km/h 4.7 km/h 26 % 0.0 mm
17:09 25.0 °C 4.2 °C 1003.9 hPa WSW 16.7 km/h 16.7 km/h 26 % 0.0 mm
17:14 25.6 °C 4.7 °C 1003.9 hPa West 13.0 km/h 13.0 km/h 26 % 0.0 mm
17:19 25.3 °C 4.4 °C 1003.9 hPa WSW 13.0 km/h 13.0 km/h 26 % 0.0 mm
17:24 25.2 °C 4.3 °C 1003.9 hPa WNW 27.8 km/h 27.8 km/h 26 % 0.0 mm
17:29 25.3 °C 4.4 °C 1003.9 hPa West 13.0 km/h 13.0 km/h 26 % 0.0 mm
17:34 25.3 °C 4.4 °C 1003.9 hPa WSW 16.7 km/h 16.7 km/h 26 % 0.0 mm
17:39 25.4 °C 4.5 °C 1003.9 hPa West 18.5 km/h 18.5 km/h 26 % 0.0 mm
17:44 25.2 °C 4.3 °C 1002.9 hPa SW 18.5 km/h 18.5 km/h 26 % 0.0 mm
17:49 25.3 °C 4.4 °C 1002.9 hPa West 14.8 km/h 14.8 km/h 26 % 0.0 mm
17:54 25.6 °C 4.7 °C 1002.9 hPa WSW 11.1 km/h 11.1 km/h 26 % 0.0 mm
17:59 25.4 °C 4.5 °C 1003.9 hPa WSW 17.2 km/h 17.2 km/h 26 % 0.0 mm
18:04 25.3 °C 4.4 °C 1003.9 hPa WNW 13.0 km/h 13.0 km/h 26 % 0.0 mm
18:09 25.2 °C 4.3 °C 1003.9 hPa WSW 14.8 km/h 15.1 km/h 26 % 0.0 mm
18:14 25.2 °C 4.3 °C 1003.9 hPa SSW 16.7 km/h 16.7 km/h 26 % 0.0 mm
18:19 24.9 °C 4.6 °C 1003.9 hPa SW 16.7 km/h 16.7 km/h 27 % 0.0 mm
18:24 24.8 °C 4.5 °C 1003.9 hPa WSW 9.0 km/h 9.0 km/h 27 % 0.0 mm
18:29 24.8 °C 5.1 °C 1003.9 hPa West 17.2 km/h 17.2 km/h 28 % 0.0 mm
18:34 23.7 °C 5.6 °C 1003.9 hPa SW 16.7 km/h 16.7 km/h 31 % 0.0 mm
18:39 22.8 °C 5.7 °C 1003.9 hPa SW 20.4 km/h 20.4 km/h 33 % 0.0 mm
18:44 22.2 °C 6.0 °C 1003.9 hPa East 20.4 km/h 20.4 km/h 35 % 0.0 mm
18:49 21.8 °C 6.4 °C 1003.9 hPa SW 16.7 km/h 16.7 km/h 37 % 0.0 mm
18:54 21.8 °C 6.8 °C 1003.9 hPa SW 16.7 km/h 16.7 km/h 38 % 0.0 mm
18:59 21.9 °C 7.3 °C 1003.9 hPa SW 20.4 km/h 20.4 km/h 39 % 0.0 mm
19:04 22.1 °C 7.5 °C 1003.9 hPa SSW 18.5 km/h 18.5 km/h 39 % 0.0 mm
19:05 17.6 °C 10.7 °C 1010.0 hPa WSW 4.8 km/h 9.7 km/h 64 % 0.0 mm
19:09 22.0 °C 7.8 °C 1003.9 hPa SSW 20.4 km/h 20.4 km/h 40 % 0.0 mm
19:14 21.7 °C 7.5 °C 1003.9 hPa SW 12.6 km/h 12.6 km/h 40 % 0.0 mm
19:15 17.5 °C 10.6 °C 1010.0 hPa SSE 4.8 km/h 9.7 km/h 64 % 0.0 mm
19:19 21.4 °C 7.9 °C 1003.9 hPa SSW 13.0 km/h 13.0 km/h 42 % 0.0 mm
19:24 21.3 °C 8.6 °C 1003.9 hPa SSE 20.9 km/h 20.9 km/h 44 % 0.0 mm
19:25 17.3 °C 10.4 °C 1010.0 hPa ESE 4.8 km/h 9.7 km/h 64 % 0.0 mm
19:29 21.1 °C 8.7 °C 1005.0 hPa SSW 6.1 km/h 11.9 km/h 45 % 0.0 mm
19:34 20.8 °C 9.1 °C 1005.0 hPa SSW 6.9 km/h 6.9 km/h 47 % 0.0 mm
19:35 17.3 °C 10.2 °C 1010.0 hPa ESE 4.8 km/h 9.7 km/h 63 % 0.0 mm
19:39 20.9 °C 9.8 °C 1005.0 hPa SSW 16.4 km/h 16.4 km/h 49 % 0.0 mm
19:44 20.9 °C 9.8 °C 1003.9 hPa South 16.7 km/h 16.7 km/h 49 % 0.0 mm
19:45 17.3 °C 10.2 °C 1009.0 hPa ESE 4.8 km/h 9.7 km/h 63 % 0.0 mm
19:49 20.8 °C 9.7 °C 1003.9 hPa SW 7.9 km/h 10.8 km/h 49 % 0.0 mm
19:54 20.7 °C 9.6 °C 1003.9 hPa SW 7.9 km/h 10.8 km/h 49 % 0.0 mm
19:55 17.1 °C 9.8 °C 1009.0 hPa ESE 4.8 km/h 9.7 km/h 62 % 0.0 mm
19:59 20.6 °C 9.8 °C 1005.0 hPa SW 7.9 km/h 10.8 km/h 50 % 0.0 mm
20:04 20.6 °C 9.8 °C 1005.0 hPa WSW 7.4 km/h 11.1 km/h 50 % 0.0 mm
20:05 16.9 °C 9.8 °C 1010.0 hPa ESE 4.8 km/h 9.7 km/h 63 % 0.0 mm
20:09 20.6 °C 9.8 °C 1005.0 hPa WSW 20.4 km/h 20.4 km/h 50 % 0.0 mm
20:15 16.7 °C 9.8 °C 1010.0 hPa ESE 4.8 km/h 9.7 km/h 64 % 0.0 mm
20:19 20.5 °C 10.0 °C 1006.0 hPa SW 6.1 km/h 10.3 km/h 51 % 0.0 mm
20:25 16.6 °C 9.8 °C 1010.0 hPa ESE 4.8 km/h 9.7 km/h 64 % 0.0 mm
20:29 20.5 °C 10.3 °C 1006.0 hPa SW 6.1 km/h 10.3 km/h 52 % 0.0 mm
20:34 20.4 °C 10.2 °C 1006.0 hPa SW 6.1 km/h 10.3 km/h 52 % 0.0 mm
20:35 16.5 °C 9.7 °C 1009.0 hPa ESE 4.8 km/h 9.7 km/h 64 % 0.0 mm
20:39 20.4 °C 9.9 °C 1006.0 hPa SW 6.1 km/h 10.3 km/h 51 % 0.0 mm
20:44 20.4 °C 9.9 °C 1006.0 hPa SW 6.1 km/h 10.3 km/h 51 % 0.0 mm
20:45 16.5 °C 9.7 °C 1010.0 hPa ESE 4.8 km/h 9.7 km/h 64 % 0.0 mm
20:49 20.3 °C 9.8 °C 1006.0 hPa SW 6.1 km/h 10.3 km/h 51 % 0.0 mm
20:54 20.2 °C 9.7 °C 1006.0 hPa SW 6.1 km/h 10.3 km/h 51 % 0.0 mm
20:55 16.5 °C 9.2 °C 1010.0 hPa ESE 4.8 km/h 9.7 km/h 62 % 0.0 mm
20:59 20.1 °C 9.7 °C 1006.0 hPa SW 6.1 km/h 10.3 km/h 51 % 0.0 mm
21:04 20.1 °C 9.7 °C 1006.0 hPa SW 6.1 km/h 10.3 km/h 51 % 0.0 mm
21:05 16.4 °C 8.6 °C 1010.0 hPa ESE 4.8 km/h 9.7 km/h 60 % 0.0 mm
21:07 20.1 °C 9.3 °C 1006.0 hPa SW 6.1 km/h 10.3 km/h 50 % 0.0 mm
21:12 20.1 °C 9.3 °C 1006.0 hPa SW 6.1 km/h 10.3 km/h 50 % 0.0 mm
21:13 20.1 °C 9.3 °C 1006.0 hPa SW 6.1 km/h 10.3 km/h 50 % 0.0 mm
21:15 16.2 °C 8.2 °C 1010.0 hPa ESE 4.8 km/h 9.7 km/h 59 % 0.0 mm
21:16 20.0 °C 9.3 °C 1006.0 hPa SW 6.1 km/h 10.3 km/h 50 % 0.0 mm
21:21 19.9 °C 9.2 °C 1006.0 hPa SW 6.1 km/h 10.3 km/h 50 % 0.0 mm
21:22 19.9 °C 9.2 °C 1006.0 hPa SW 6.1 km/h 10.3 km/h 50 % 0.0 mm
21:23 19.9 °C 9.2 °C 1006.0 hPa SW 6.1 km/h 10.3 km/h 50 % 0.0 mm
21:25 15.9 °C 7.7 °C 1010.0 hPa ESE 4.8 km/h 9.7 km/h 58 % 0.0 mm
21:27 19.8 °C 9.1 °C 1006.0 hPa SW 6.1 km/h 10.3 km/h 50 % 0.0 mm
21:29 19.8 °C 9.1 °C 1007.0 hPa SW 6.1 km/h 10.3 km/h 50 % 0.0 mm
21:31 19.8 °C 9.1 °C 1007.0 hPa SW 6.1 km/h 10.3 km/h 50 % 0.0 mm
21:34 19.8 °C 9.1 °C 1007.0 hPa SW 6.1 km/h 10.3 km/h 50 % 0.0 mm
21:35 15.7 °C 7.2 °C 1010.0 hPa ESE 4.8 km/h 9.7 km/h 57 % 0.0 mm
21:39 19.7 °C 9.0 °C 1007.0 hPa SW 6.1 km/h 10.3 km/h 50 % 0.0 mm
21:45 15.5 °C 7.0 °C 1010.7 hPa ESE 4.8 km/h 9.7 km/h 57 % 0.0 mm
21:46 19.6 °C 8.9 °C 1007.0 hPa SW 6.1 km/h 10.3 km/h 50 % 0.0 mm
21:49 19.6 °C 8.9 °C 1007.0 hPa SW 6.1 km/h 10.3 km/h 50 % 0.0 mm
21:54 19.5 °C 8.8 °C 1007.0 hPa SW 6.1 km/h 10.3 km/h 50 % 0.0 mm
21:55 15.5 °C 7.3 °C 1010.7 hPa ESE 4.8 km/h 9.7 km/h 58 % 0.0 mm
21:56 19.5 °C 8.8 °C 1007.0 hPa SW 6.1 km/h 10.3 km/h 50 % 0.0 mm
21:57 19.5 °C 8.8 °C 1007.0 hPa SW 6.1 km/h 10.3 km/h 50 % 0.0 mm
22:01 19.4 °C 9.0 °C 1007.0 hPa SW 6.1 km/h 10.3 km/h 51 % 0.0 mm
22:02 19.3 °C 8.6 °C 1007.0 hPa SW 6.1 km/h 10.3 km/h 50 % 0.0 mm
22:03 19.3 °C 8.9 °C 1007.0 hPa SW 6.1 km/h 10.3 km/h 51 % 0.0 mm
22:05 15.4 °C 7.2 °C 1010.7 hPa ESE 4.8 km/h 9.7 km/h 58 % 0.0 mm
22:06 19.2 °C 8.8 °C 1007.0 hPa SW 6.1 km/h 10.3 km/h 51 % 0.0 mm
22:08 19.2 °C 8.8 °C 1007.0 hPa SW 6.1 km/h 10.3 km/h 51 % 0.0 mm
22:13 19.1 °C 8.7 °C 1008.0 hPa SW 6.1 km/h 10.3 km/h 51 % 0.0 mm
22:15 15.6 °C 7.1 °C 1010.0 hPa ESE 4.8 km/h 9.7 km/h 57 % 0.0 mm
22:18 19.0 °C 8.9 °C 1008.0 hPa SW 6.1 km/h 10.3 km/h 52 % 0.0 mm
22:23 18.8 °C 9.0 °C 1008.0 hPa WSW 5.6 km/h 5.6 km/h 53 % 0.0 mm
22:25 15.7 °C 7.2 °C 1010.0 hPa ESE 4.8 km/h 9.7 km/h 57 % 0.0 mm
22:28 18.8 °C 9.0 °C 1008.0 hPa SW 5.6 km/h 5.6 km/h 53 % 0.0 mm
22:33 18.7 °C 9.2 °C 1008.0 hPa WSW 4.2 km/h 4.7 km/h 54 % 0.0 mm
22:35 15.3 °C 7.1 °C 1010.0 hPa ESE 4.8 km/h 9.7 km/h 58 % 0.0 mm
22:38 18.6 °C 9.1 °C 1008.0 hPa WSW 4.2 km/h 4.7 km/h 54 % 0.0 mm
22:43 18.5 °C 9.3 °C 1008.0 hPa WSW 4.2 km/h 4.7 km/h 55 % 0.0 mm
22:45 15.1 °C 6.6 °C 1010.7 hPa ESE 4.8 km/h 9.7 km/h 57 % 0.0 mm
22:48 18.4 °C 9.4 °C 1008.0 hPa WSW 4.2 km/h 4.7 km/h 56 % 0.0 mm
22:53 18.4 °C 9.4 °C 1008.0 hPa WSW 4.2 km/h 4.7 km/h 56 % 0.0 mm
22:55 15.2 °C 6.5 °C 1010.7 hPa ESE 4.8 km/h 9.7 km/h 56 % 0.0 mm
22:58 18.3 °C 9.4 °C 1008.0 hPa WSW 4.2 km/h 4.7 km/h 56 % 0.0 mm
23:03 18.2 °C 9.6 °C 1008.0 hPa WSW 4.2 km/h 4.7 km/h 57 % 0.0 mm
23:05 15.2 °C 6.5 °C 1010.7 hPa ESE 4.8 km/h 9.7 km/h 56 % 0.0 mm
23:08 18.2 °C 9.8 °C 1008.0 hPa WSW 4.2 km/h 4.7 km/h 58 % 0.0 mm
23:13 18.1 °C 9.7 °C 1009.0 hPa WSW 4.2 km/h 4.7 km/h 58 % 0.0 mm
23:15 15.4 °C 6.7 °C 1010.7 hPa ESE 4.8 km/h 9.7 km/h 56 % 0.0 mm
23:18 18.1 °C 9.9 °C 1009.0 hPa WSW 4.2 km/h 4.7 km/h 59 % 0.0 mm
23:23 18.1 °C 9.9 °C 1009.0 hPa WSW 4.2 km/h 4.7 km/h 59 % 0.0 mm
23:25 15.3 °C 6.3 °C 1010.7 hPa ESE 4.8 km/h 9.7 km/h 55 % 0.0 mm
23:28 18.0 °C 10.1 °C 1010.0 hPa WSW 4.2 km/h 4.7 km/h 60 % 0.0 mm
23:35 15.1 °C 6.1 °C 1010.7 hPa ESE 4.8 km/h 9.7 km/h 55 % 0.0 mm
23:38 17.9 °C 10.3 °C 1010.0 hPa WSW 4.2 km/h 4.7 km/h 61 % 0.0 mm
23:43 17.8 °C 10.2 °C 1010.0 hPa WSW 4.2 km/h 4.7 km/h 61 % 0.0 mm
23:45 15.0 °C 6.0 °C 1010.7 hPa ESE 4.8 km/h 9.7 km/h 55 % 0.0 mm
23:48 17.7 °C 10.3 °C 1010.0 hPa WSW 4.2 km/h 4.7 km/h 62 % 0.0 mm
23:53 17.6 °C 10.4 °C 1010.0 hPa WSW 4.2 km/h 4.7 km/h 63 % 0.0 mm
23:55 14.9 °C 5.9 °C 1010.7 hPa ESE 4.8 km/h 9.7 km/h 55 % 0.0 mm
23:58 17.6 °C 10.4 °C 1010.0 hPa WSW 4.2 km/h 4.7 km/h 63 % 0.0 mm
Meteo Sesrovires
Elogis d' Weather Underground - 3.75 mb

Guio original per  Jim McMurry - jmcmurry@mwt.net Adaptat per a la plantilla per  Wim van der Kuil - Leuven-Template.eu

Trobareu la nostra informacio del temps tambe a:

Weather Underground

AWEKAS